createdAt,value
2023-03-14T00:00:00.444Z,12.69
2023-03-14T00:00:11.211Z,12.67
2023-03-14T00:00:22.270Z,12.70
2023-03-14T00:00:33.241Z,12.64
2023-03-14T00:00:44.015Z,12.69
2023-03-14T00:00:55.071Z,12.67
2023-03-14T00:01:06.045Z,12.67
2023-03-14T00:01:16.808Z,12.66
2023-03-14T00:01:27.863Z,12.64
2023-03-14T00:01:38.839Z,12.67
2023-03-14T00:01:49.610Z,12.67
2023-03-14T00:02:00.665Z,12.66
2023-03-14T00:02:11.689Z,12.67
2023-03-14T00:02:22.557Z,12.67
2023-03-14T00:02:33.089Z,12.62
2023-03-14T00:02:44.105Z,12.64
2023-03-14T00:02:54.878Z,12.70
2023-03-14T00:03:05.913Z,12.64
2023-03-14T00:03:16.878Z,12.67
2023-03-14T00:03:27.655Z,12.69
2023-03-14T00:03:38.721Z,12.66
2023-03-14T00:03:49.662Z,12.67
2023-03-14T00:04:00.433Z,12.69
2023-03-14T00:04:11.046Z,12.67
2023-03-14T00:04:22.009Z,12.69
2023-03-14T00:04:32.780Z,12.64
2023-03-14T00:04:43.820Z,12.66
2023-03-14T00:04:54.797Z,12.66
2023-03-14T00:05:05.558Z,12.63
2023-03-14T00:05:16.613Z,12.69
2023-03-14T00:05:27.587Z,12.64
2023-03-14T00:05:38.361Z,12.71
2023-03-14T00:05:49.409Z,12.63
2023-03-14T00:06:00.392Z,12.66
2023-03-14T00:06:11.167Z,12.66
2023-03-14T00:06:22.227Z,12.64
2023-03-14T00:06:33.196Z,12.66
2023-03-14T00:06:43.970Z,12.69
2023-03-14T00:06:55.010Z,12.66
2023-03-14T00:07:05.982Z,12.63
2023-03-14T00:07:16.770Z,12.69
2023-03-14T00:07:27.806Z,12.66
2023-03-14T00:07:38.792Z,12.64
2023-03-14T00:07:49.549Z,12.63
2023-03-14T00:08:00.724Z,12.64
2023-03-14T00:08:11.650Z,12.64
2023-03-14T00:08:22.494Z,12.64
2023-03-14T00:08:33.501Z,12.66
2023-03-14T00:08:44.471Z,12.64
2023-03-14T00:08:55.254Z,12.67
2023-03-14T00:09:06.338Z,12.66
2023-03-14T00:09:17.273Z,12.60
2023-03-14T00:09:28.063Z,12.66
2023-03-14T00:09:39.115Z,12.66
2023-03-14T00:09:50.109Z,12.64
2023-03-14T00:10:00.887Z,12.69
2023-03-14T00:10:11.932Z,12.63
2023-03-14T00:10:22.906Z,12.66
2023-03-14T00:10:33.747Z,12.63
2023-03-14T00:10:44.249Z,12.66
2023-03-14T00:10:55.239Z,12.67
2023-03-14T00:11:06.035Z,12.67
2023-03-14T00:11:17.031Z,12.69
2023-03-14T00:11:28.029Z,12.64
2023-03-14T00:11:38.781Z,12.66
2023-03-14T00:11:49.824Z,12.66
2023-03-14T00:12:00.796Z,12.66
2023-03-14T00:12:11.572Z,12.66
2023-03-14T00:12:22.617Z,12.64
2023-03-14T00:12:33.599Z,12.64
2023-03-14T00:12:44.388Z,12.67
2023-03-14T00:12:55.411Z,12.64
2023-03-14T00:13:06.391Z,12.66
2023-03-14T00:13:17.156Z,12.66
2023-03-14T00:13:28.209Z,12.66
2023-03-14T00:13:39.184Z,12.62
2023-03-14T00:13:49.973Z,12.67
2023-03-14T00:14:00.992Z,12.62
2023-03-14T00:14:11.962Z,12.67
2023-03-14T00:14:22.724Z,12.67
2023-03-14T00:14:33.788Z,12.66
2023-03-14T00:14:44.795Z,12.66
2023-03-14T00:14:55.537Z,12.69
2023-03-14T00:15:06.603Z,12.64
2023-03-14T00:15:17.569Z,12.63
2023-03-14T00:15:28.322Z,12.64
2023-03-14T00:15:39.434Z,12.66
2023-03-14T00:15:50.447Z,12.60
2023-03-14T00:16:01.201Z,12.66
2023-03-14T00:16:12.337Z,12.64
2023-03-14T00:16:23.289Z,12.66
2023-03-14T00:16:34.022Z,12.66
2023-03-14T00:16:45.080Z,12.64
2023-03-14T00:16:56.067Z,12.63
2023-03-14T00:17:06.835Z,12.67
2023-03-14T00:17:17.877Z,12.63
2023-03-14T00:17:28.848Z,12.66
2023-03-14T00:17:39.646Z,12.69
2023-03-14T00:17:50.672Z,12.62
2023-03-14T00:18:01.641Z,12.63
2023-03-14T00:18:12.418Z,12.66
2023-03-14T00:18:23.463Z,12.64
2023-03-14T00:18:34.457Z,12.62
2023-03-14T00:18:45.222Z,12.67
2023-03-14T00:18:56.278Z,12.66
2023-03-14T00:19:07.243Z,12.62
2023-03-14T00:19:18.026Z,12.69
2023-03-14T00:19:29.083Z,12.66
2023-03-14T00:19:40.054Z,12.70
2023-03-14T00:19:50.860Z,12.66
2023-03-14T00:20:01.915Z,12.69
2023-03-14T00:20:12.890Z,12.64
2023-03-14T00:20:23.706Z,12.67
2023-03-14T00:20:34.215Z,12.64
2023-03-14T00:20:45.198Z,12.66
2023-03-14T00:20:56.012Z,12.67
2023-03-14T00:21:07.050Z,12.63
2023-03-14T00:21:18.030Z,12.64
2023-03-14T00:21:28.785Z,12.67
2023-03-14T00:21:39.832Z,12.66
2023-03-14T00:21:50.800Z,12.67
2023-03-14T00:22:01.568Z,12.69
2023-03-14T00:22:12.619Z,12.69
2023-03-14T00:22:23.601Z,12.66
2023-03-14T00:22:34.437Z,12.67
2023-03-14T00:22:44.944Z,12.66
2023-03-14T00:22:55.913Z,12.66
2023-03-14T00:23:06.689Z,12.66
2023-03-14T00:23:17.723Z,12.69
2023-03-14T00:23:28.700Z,12.63
2023-03-14T00:23:39.471Z,12.64
2023-03-14T00:23:50.501Z,12.69
2023-03-14T00:24:01.477Z,12.62
2023-03-14T00:24:12.259Z,12.67
2023-03-14T00:24:23.312Z,12.66
2023-03-14T00:24:34.387Z,12.64
2023-03-14T00:24:45.175Z,12.66
2023-03-14T00:24:56.244Z,12.67
2023-03-14T00:25:07.197Z,12.64
2023-03-14T00:25:18.005Z,12.66
2023-03-14T00:25:28.543Z,12.64
2023-03-14T00:25:39.498Z,12.62
2023-03-14T00:25:50.282Z,12.67
2023-03-14T00:26:01.319Z,12.66
2023-03-14T00:26:12.308Z,12.66
2023-03-14T00:26:23.060Z,12.69
2023-03-14T00:26:34.118Z,12.64
2023-03-14T00:26:45.117Z,12.67
2023-03-14T00:26:55.955Z,12.69
2023-03-14T00:27:06.980Z,12.62
2023-03-14T00:27:17.960Z,12.66
2023-03-14T00:27:28.728Z,12.64
2023-03-14T00:27:39.764Z,12.64
2023-03-14T00:27:50.734Z,12.66
2023-03-14T00:28:01.529Z,12.67
2023-03-14T00:28:12.558Z,12.67
2023-03-14T00:28:23.521Z,12.62
2023-03-14T00:28:34.299Z,12.67
2023-03-14T00:28:45.341Z,12.64
2023-03-14T00:28:56.310Z,12.69
2023-03-14T00:29:07.095Z,12.69
2023-03-14T00:29:18.143Z,12.62
2023-03-14T00:29:29.106Z,12.67
2023-03-14T00:29:39.875Z,12.64
2023-03-14T00:29:50.928Z,12.62
2023-03-14T00:30:01.902Z,12.64
2023-03-14T00:30:12.670Z,12.63
2023-03-14T00:30:23.719Z,12.66
2023-03-14T00:30:34.690Z,12.64
2023-03-14T00:30:45.486Z,12.67
2023-03-14T00:30:56.616Z,12.67
2023-03-14T00:31:07.612Z,12.63
2023-03-14T00:31:18.490Z,12.69
2023-03-14T00:31:29.040Z,12.63
2023-03-14T00:31:40.069Z,12.69
2023-03-14T00:31:50.851Z,12.66
2023-03-14T00:32:01.899Z,12.64
2023-03-14T00:32:12.946Z,12.62
2023-03-14T00:32:23.689Z,12.67
2023-03-14T00:32:34.728Z,12.66
2023-03-14T00:32:45.689Z,12.67
2023-03-14T00:32:56.546Z,12.69
2023-03-14T00:33:07.041Z,12.69
2023-03-14T00:33:18.100Z,12.66
2023-03-14T00:33:28.828Z,12.67
2023-03-14T00:33:39.885Z,12.69
2023-03-14T00:33:50.867Z,12.64
2023-03-14T00:34:01.668Z,12.63
2023-03-14T00:34:12.712Z,12.62
2023-03-14T00:34:23.688Z,12.66
2023-03-14T00:34:34.465Z,12.69
2023-03-14T00:34:45.518Z,12.67
2023-03-14T00:34:56.491Z,12.63
2023-03-14T00:35:07.249Z,12.66
2023-03-14T00:35:18.290Z,12.62
2023-03-14T00:35:29.278Z,12.62
2023-03-14T00:35:40.090Z,12.63
2023-03-14T00:35:51.115Z,12.66
2023-03-14T00:36:02.186Z,12.63
2023-03-14T00:36:12.978Z,12.67
2023-03-14T00:36:24.051Z,12.64
2023-03-14T00:36:35.005Z,12.59
2023-03-14T00:36:45.796Z,12.62
2023-03-14T00:36:56.827Z,12.67
2023-03-14T00:37:07.803Z,12.60
2023-03-14T00:37:18.581Z,12.64
2023-03-14T00:37:29.625Z,12.62
2023-03-14T00:37:40.605Z,12.62
2023-03-14T00:37:51.365Z,12.66
2023-03-14T00:38:02.402Z,12.63
2023-03-14T00:38:13.363Z,12.64
2023-03-14T00:38:24.160Z,12.67
2023-03-14T00:38:35.205Z,12.63
2023-03-14T00:38:46.174Z,12.64
2023-03-14T00:38:56.949Z,12.67
2023-03-14T00:39:08.019Z,12.60
2023-03-14T00:39:18.988Z,12.66
2023-03-14T00:39:29.761Z,12.64
2023-03-14T00:39:40.797Z,12.64
2023-03-14T00:39:51.764Z,12.64
2023-03-14T00:40:02.538Z,12.63
2023-03-14T00:40:13.620Z,12.63
2023-03-14T00:40:24.555Z,12.60
2023-03-14T00:40:35.361Z,12.63
2023-03-14T00:40:46.387Z,12.62
2023-03-14T00:40:57.378Z,12.64
2023-03-14T00:41:08.169Z,12.63
2023-03-14T00:41:19.224Z,12.62
2023-03-14T00:41:30.160Z,12.60
2023-03-14T00:41:40.931Z,12.66
2023-03-14T00:41:51.977Z,12.62
2023-03-14T00:42:02.946Z,12.60
2023-03-14T00:42:13.728Z,12.64
2023-03-14T00:42:24.777Z,12.62
2023-03-14T00:42:35.781Z,12.59
2023-03-14T00:42:46.565Z,12.60
2023-03-14T00:42:57.618Z,12.54
2023-03-14T00:43:08.584Z,12.59
2023-03-14T00:43:19.362Z,12.57
2023-03-14T00:43:30.417Z,12.54
2023-03-14T00:43:41.400Z,12.57
2023-03-14T00:43:52.169Z,12.52
2023-03-14T00:44:03.220Z,12.62
2023-03-14T00:44:14.187Z,12.57
2023-03-14T00:44:24.996Z,12.56
2023-03-14T00:44:36.030Z,12.52
2023-03-14T00:44:47.004Z,12.54
2023-03-14T00:44:57.765Z,12.56
2023-03-14T00:45:08.838Z,12.56
2023-03-14T00:45:19.799Z,12.52
2023-03-14T00:45:30.610Z,12.56
2023-03-14T00:45:41.647Z,12.57
2023-03-14T00:45:52.651Z,12.56
2023-03-14T00:46:03.409Z,12.57
2023-03-14T00:46:14.536Z,12.54
2023-03-14T00:46:25.519Z,12.56
2023-03-14T00:46:36.336Z,12.56
2023-03-14T00:46:46.975Z,12.54
2023-03-14T00:46:57.937Z,12.51
2023-03-14T00:47:08.790Z,12.56
2023-03-14T00:47:19.318Z,12.54
2023-03-14T00:47:30.276Z,12.56
2023-03-14T00:47:41.067Z,12.62
2023-03-14T00:47:52.088Z,12.57
2023-03-14T00:48:03.061Z,12.54
2023-03-14T00:48:13.853Z,12.51
2023-03-14T00:48:24.891Z,12.52
2023-03-14T00:48:35.850Z,12.52
2023-03-14T00:48:46.625Z,12.60
2023-03-14T00:48:57.700Z,12.57
2023-03-14T00:49:08.725Z,12.56
2023-03-14T00:49:19.489Z,12.56
2023-03-14T00:49:30.521Z,12.51
2023-03-14T00:49:41.533Z,12.54
2023-03-14T00:49:52.303Z,12.54
2023-03-14T00:50:03.344Z,12.54
2023-03-14T00:50:14.311Z,12.52
2023-03-14T00:50:25.097Z,12.54
2023-03-14T00:50:36.135Z,12.54
2023-03-14T00:50:47.121Z,12.57
2023-03-14T00:50:57.886Z,12.60
2023-03-14T00:51:08.930Z,12.52
2023-03-14T00:51:19.908Z,12.54
2023-03-14T00:51:30.693Z,12.51
2023-03-14T00:51:41.736Z,12.54
2023-03-14T00:51:52.728Z,12.54
2023-03-14T00:52:03.489Z,12.56
2023-03-14T00:52:14.536Z,12.48
2023-03-14T00:52:25.521Z,12.51
2023-03-14T00:52:36.282Z,12.56
2023-03-14T00:52:47.335Z,12.54
2023-03-14T00:52:58.296Z,12.52
2023-03-14T00:53:09.077Z,12.52
2023-03-14T00:53:20.115Z,12.52
2023-03-14T00:53:31.134Z,12.52
2023-03-14T00:53:41.882Z,12.57
2023-03-14T00:53:52.930Z,12.49
2023-03-14T00:54:03.908Z,12.48
2023-03-14T00:54:14.693Z,12.56
2023-03-14T00:54:25.750Z,12.56
2023-03-14T00:54:36.723Z,12.51
2023-03-14T00:54:47.508Z,12.56
2023-03-14T00:54:58.573Z,12.57
2023-03-14T00:55:09.526Z,12.52
2023-03-14T00:55:20.319Z,12.57
2023-03-14T00:55:31.369Z,12.54
2023-03-14T00:55:42.335Z,12.56
2023-03-14T00:55:53.121Z,12.60
2023-03-14T00:56:04.160Z,12.52
2023-03-14T00:56:15.135Z,12.56
2023-03-14T00:56:25.924Z,12.56
2023-03-14T00:56:36.980Z,12.52
2023-03-14T00:56:47.947Z,12.51
2023-03-14T00:56:58.713Z,12.54
2023-03-14T00:57:09.774Z,12.54
2023-03-14T00:57:20.756Z,12.51
2023-03-14T00:57:31.526Z,12.52
2023-03-14T00:57:42.577Z,12.57
2023-03-14T00:57:53.557Z,12.52
2023-03-14T00:58:04.309Z,12.57
2023-03-14T00:58:15.349Z,12.56
2023-03-14T00:58:26.341Z,12.57
2023-03-14T00:58:37.108Z,12.57
2023-03-14T00:58:48.157Z,12.57
2023-03-14T00:58:59.125Z,12.57
2023-03-14T00:59:09.887Z,12.63
2023-03-14T00:59:20.960Z,12.57
2023-03-14T00:59:31.923Z,12.52
2023-03-14T00:59:42.704Z,12.62
2023-03-14T00:59:53.751Z,12.57
2023-03-14T01:00:04.713Z,12.60
2023-03-14T01:00:15.481Z,12.59
2023-03-14T01:00:26.527Z,12.57
2023-03-14T01:00:37.503Z,12.57
2023-03-14T01:00:48.276Z,12.59
2023-03-14T01:00:59.331Z,12.62
2023-03-14T01:01:10.293Z,12.59
2023-03-14T01:01:21.145Z,12.60
2023-03-14T01:01:31.677Z,12.56
2023-03-14T01:01:42.638Z,12.60
2023-03-14T01:01:53.390Z,12.56
2023-03-14T01:02:04.510Z,12.59
2023-03-14T01:02:15.521Z,12.59
2023-03-14T01:02:26.298Z,12.57
2023-03-14T01:02:37.419Z,12.60
2023-03-14T01:02:48.401Z,12.57
2023-03-14T01:02:59.170Z,12.56
2023-03-14T01:03:10.303Z,12.59
2023-03-14T01:03:21.248Z,12.62
2023-03-14T01:03:32.025Z,12.63
2023-03-14T01:03:43.088Z,12.59
2023-03-14T01:03:54.059Z,12.63
2023-03-14T01:04:04.848Z,12.60
2023-03-14T01:04:15.866Z,12.62
2023-03-14T01:04:26.834Z,12.60
2023-03-14T01:04:37.611Z,12.62
2023-03-14T01:04:48.644Z,12.62
2023-03-14T01:04:59.619Z,12.63
2023-03-14T01:05:10.392Z,12.57
2023-03-14T01:05:21.435Z,12.60
2023-03-14T01:05:32.411Z,12.60
2023-03-14T01:05:43.197Z,12.64
2023-03-14T01:05:54.250Z,12.59
2023-03-14T01:06:05.218Z,12.60
2023-03-14T01:06:15.985Z,12.62
2023-03-14T01:06:27.037Z,12.60
2023-03-14T01:06:38.047Z,12.60
2023-03-14T01:06:48.824Z,12.62
2023-03-14T01:06:59.888Z,12.62
2023-03-14T01:07:10.842Z,12.62
2023-03-14T01:07:21.612Z,12.63
2023-03-14T01:07:32.659Z,12.63
2023-03-14T01:07:43.632Z,12.60
2023-03-14T01:07:54.421Z,12.63
2023-03-14T01:08:05.473Z,12.64
2023-03-14T01:08:16.429Z,12.64
2023-03-14T01:08:27.193Z,12.63
2023-03-14T01:08:38.252Z,12.63
2023-03-14T01:08:49.214Z,12.60
2023-03-14T01:08:59.998Z,12.60
2023-03-14T01:09:11.077Z,12.62
2023-03-14T01:09:22.054Z,12.63
2023-03-14T01:09:32.826Z,12.62
2023-03-14T01:09:43.877Z,12.62
2023-03-14T01:09:54.851Z,12.62
2023-03-14T01:10:05.632Z,12.60
2023-03-14T01:10:16.667Z,12.62
2023-03-14T01:10:27.624Z,12.59
2023-03-14T01:10:38.402Z,12.66
2023-03-14T01:10:49.455Z,12.66
2023-03-14T01:11:00.414Z,12.63
2023-03-14T01:11:11.192Z,12.64
2023-03-14T01:11:22.237Z,12.59
2023-03-14T01:11:33.231Z,12.62
2023-03-14T01:11:43.994Z,12.62
2023-03-14T01:11:55.040Z,12.63
2023-03-14T01:12:06.005Z,12.59
2023-03-14T01:12:16.769Z,12.63
2023-03-14T01:12:27.811Z,12.60
2023-03-14T01:12:38.780Z,12.62
2023-03-14T01:12:49.543Z,12.60
2023-03-14T01:13:00.600Z,12.57
2023-03-14T01:13:11.572Z,12.57
2023-03-14T01:13:22.351Z,12.59
2023-03-14T01:13:33.405Z,12.59
2023-03-14T01:13:44.381Z,12.54
2023-03-14T01:13:55.147Z,12.59
2023-03-14T01:14:06.225Z,12.59
2023-03-14T01:14:17.190Z,12.60
2023-03-14T01:14:27.963Z,12.57
2023-03-14T01:14:39.018Z,12.59
2023-03-14T01:14:50.019Z,12.57
2023-03-14T01:15:00.778Z,12.60
2023-03-14T01:15:11.836Z,12.60
2023-03-14T01:15:22.805Z,12.56
2023-03-14T01:15:33.571Z,12.57
2023-03-14T01:15:44.701Z,12.60
2023-03-14T01:15:55.682Z,12.60
2023-03-14T01:16:06.482Z,12.57
2023-03-14T01:16:17.051Z,12.56
2023-03-14T01:16:28.097Z,12.57
2023-03-14T01:16:38.941Z,12.57
2023-03-14T01:16:49.454Z,12.56
2023-03-14T01:17:00.430Z,12.57
2023-03-14T01:17:11.191Z,12.62
2023-03-14T01:17:22.236Z,12.60
2023-03-14T01:17:33.198Z,12.59
2023-03-14T01:17:43.979Z,12.62
2023-03-14T01:17:55.031Z,12.57
2023-03-14T01:18:06.016Z,12.60
2023-03-14T01:18:16.775Z,12.57
2023-03-14T01:18:27.828Z,12.62
2023-03-14T01:18:38.795Z,12.56
2023-03-14T01:18:49.579Z,12.60
2023-03-14T01:19:00.622Z,12.56
2023-03-14T01:19:11.582Z,12.51
2023-03-14T01:19:22.362Z,12.62
2023-03-14T01:19:33.466Z,12.59
2023-03-14T01:19:44.417Z,12.51
2023-03-14T01:19:55.280Z,12.56
2023-03-14T01:20:05.845Z,12.52
2023-03-14T01:20:16.779Z,12.52
2023-03-14T01:20:27.548Z,12.59
2023-03-14T01:20:38.605Z,12.57
2023-03-14T01:20:49.575Z,12.52
2023-03-14T01:21:00.384Z,12.57
2023-03-14T01:21:11.418Z,12.52
2023-03-14T01:21:22.406Z,12.49
2023-03-14T01:21:33.165Z,12.59
2023-03-14T01:21:44.216Z,12.51
2023-03-14T01:21:55.193Z,12.49
2023-03-14T01:22:05.957Z,12.56
2023-03-14T01:22:17.018Z,12.49
2023-03-14T01:22:27.984Z,12.56
2023-03-14T01:22:38.771Z,12.59
2023-03-14T01:22:49.831Z,12.49
2023-03-14T01:23:00.782Z,12.49
2023-03-14T01:23:11.566Z,12.51
2023-03-14T01:23:22.625Z,12.57
2023-03-14T01:23:33.621Z,12.52
2023-03-14T01:23:44.399Z,12.59
2023-03-14T01:23:55.427Z,12.49
2023-03-14T01:24:06.436Z,12.51
2023-03-14T01:24:17.186Z,12.54
2023-03-14T01:24:28.224Z,12.49
2023-03-14T01:24:39.203Z,12.46
2023-03-14T01:24:49.964Z,12.56
2023-03-14T01:25:01.022Z,12.52
2023-03-14T01:25:11.985Z,12.52
2023-03-14T01:25:22.753Z,12.54
2023-03-14T01:25:33.800Z,12.52
2023-03-14T01:25:44.767Z,12.49
2023-03-14T01:25:55.535Z,12.56
2023-03-14T01:26:06.599Z,12.48
2023-03-14T01:26:17.583Z,12.51
2023-03-14T01:26:28.390Z,12.52
2023-03-14T01:26:38.925Z,12.51
2023-03-14T01:26:49.863Z,12.51
2023-03-14T01:27:00.652Z,12.54
2023-03-14T01:27:11.697Z,12.49
2023-03-14T01:27:22.690Z,12.49
2023-03-14T01:27:33.440Z,12.51
2023-03-14T01:27:44.482Z,12.51
2023-03-14T01:27:55.460Z,12.52
2023-03-14T01:28:06.230Z,12.54
2023-03-14T01:28:17.267Z,12.48
2023-03-14T01:28:28.239Z,12.49
2023-03-14T01:28:39.006Z,12.51
2023-03-14T01:28:50.152Z,12.52
2023-03-14T01:29:01.096Z,12.51
2023-03-14T01:29:11.853Z,12.54
2023-03-14T01:29:22.939Z,12.52
2023-03-14T01:29:33.872Z,12.52
2023-03-14T01:29:44.650Z,12.54
2023-03-14T01:29:55.709Z,12.52
2023-03-14T01:30:06.720Z,12.49
2023-03-14T01:30:17.476Z,12.52
2023-03-14T01:30:28.523Z,12.48
2023-03-14T01:30:39.498Z,12.48
2023-03-14T01:30:50.264Z,12.49
2023-03-14T01:31:01.376Z,12.49
2023-03-14T01:31:12.389Z,12.49
2023-03-14T01:31:23.237Z,12.51
2023-03-14T01:31:33.846Z,12.48
2023-03-14T01:31:44.457Z,12.48
2023-03-14T01:31:55.253Z,12.49
2023-03-14T01:32:06.285Z,12.49
2023-03-14T01:32:17.265Z,12.46
2023-03-14T01:32:28.078Z,12.48
2023-03-14T01:32:39.147Z,12.51
2023-03-14T01:32:50.198Z,12.48
2023-03-14T01:33:01.002Z,12.49
2023-03-14T01:33:12.048Z,12.52
2023-03-14T01:33:23.031Z,12.51
2023-03-14T01:33:33.795Z,12.49
2023-03-14T01:33:44.859Z,12.48
2023-03-14T01:33:55.808Z,12.48
2023-03-14T01:34:06.587Z,12.46
2023-03-14T01:34:17.632Z,12.51
2023-03-14T01:34:28.603Z,12.48
2023-03-14T01:34:39.359Z,12.49
2023-03-14T01:34:50.404Z,12.45
2023-03-14T01:35:01.378Z,12.45
2023-03-14T01:35:12.169Z,12.46
2023-03-14T01:35:23.226Z,12.48
2023-03-14T01:35:34.222Z,12.46
2023-03-14T01:35:45.003Z,12.49
2023-03-14T01:35:56.054Z,12.48
2023-03-14T01:36:07.044Z,12.45
2023-03-14T01:36:17.771Z,12.48
2023-03-14T01:36:30.478Z,12.49
2023-03-14T01:36:39.411Z,12.48
2023-03-14T01:36:50.169Z,12.45
2023-03-14T01:37:01.223Z,12.46
2023-03-14T01:37:12.197Z,12.49
2023-03-14T01:37:22.964Z,12.49
2023-03-14T01:37:34.022Z,12.46
2023-03-14T01:37:44.974Z,12.48
2023-03-14T01:37:55.791Z,12.48
2023-03-14T01:38:06.828Z,12.48
2023-03-14T01:38:17.785Z,12.48
2023-03-14T01:38:28.569Z,12.46
2023-03-14T01:38:39.630Z,12.49
2023-03-14T01:38:50.599Z,12.45
2023-03-14T01:39:01.364Z,12.51
2023-03-14T01:39:12.413Z,12.49
2023-03-14T01:39:23.389Z,12.46
2023-03-14T01:39:34.359Z,12.48
2023-03-14T01:39:44.824Z,12.45
2023-03-14T01:39:55.797Z,12.49
2023-03-14T01:40:06.570Z,12.46
2023-03-14T01:40:17.633Z,12.46
2023-03-14T01:40:28.610Z,12.46
2023-03-14T01:40:39.377Z,12.48
2023-03-14T01:40:50.436Z,12.46
2023-03-14T01:41:01.428Z,12.45
2023-03-14T01:41:12.212Z,12.46
2023-03-14T01:41:23.277Z,12.46
2023-03-14T01:41:34.222Z,12.44
2023-03-14T01:41:45.025Z,12.42
2023-03-14T01:41:56.042Z,12.46
2023-03-14T01:42:07.023Z,12.46
2023-03-14T01:42:17.797Z,12.48
2023-03-14T01:42:28.847Z,12.42
2023-03-14T01:42:39.824Z,12.41
2023-03-14T01:42:50.585Z,12.46
2023-03-14T01:43:01.642Z,12.44
2023-03-14T01:43:12.604Z,12.44
2023-03-14T01:43:23.359Z,12.44
2023-03-14T01:43:34.496Z,12.44
2023-03-14T01:43:45.470Z,12.41
2023-03-14T01:43:56.235Z,12.45
2023-03-14T01:44:07.276Z,12.44
2023-03-14T01:44:18.262Z,12.45
2023-03-14T01:44:29.011Z,12.45
2023-03-14T01:44:40.055Z,12.45
2023-03-14T01:44:51.034Z,12.45
2023-03-14T01:45:01.831Z,12.44
2023-03-14T01:45:12.855Z,12.44
2023-03-14T01:45:23.905Z,12.44
2023-03-14T01:45:34.692Z,12.42
2023-03-14T01:45:45.745Z,12.42
2023-03-14T01:45:56.693Z,12.46
2023-03-14T01:46:07.604Z,12.44
2023-03-14T01:46:18.151Z,12.41
2023-03-14T01:46:29.128Z,12.45
2023-03-14T01:46:39.919Z,12.46
2023-03-14T01:46:50.950Z,12.39
2023-03-14T01:47:01.915Z,12.44
2023-03-14T01:47:12.686Z,12.42
2023-03-14T01:47:23.736Z,12.39
2023-03-14T01:47:34.705Z,12.39
2023-03-14T01:47:45.472Z,12.42
2023-03-14T01:47:56.523Z,12.41
2023-03-14T01:48:07.495Z,12.41
2023-03-14T01:48:18.265Z,12.39
2023-03-14T01:48:29.310Z,12.34
2023-03-14T01:48:40.297Z,12.33
2023-03-14T01:48:51.080Z,12.39
2023-03-14T01:49:02.132Z,12.37
2023-03-14T01:49:13.099Z,12.37
2023-03-14T01:49:23.872Z,12.38
2023-03-14T01:49:34.915Z,12.33
2023-03-14T01:49:45.880Z,12.29
2023-03-14T01:49:56.660Z,12.34
2023-03-14T01:50:07.711Z,12.30
2023-03-14T01:50:18.661Z,12.33
2023-03-14T01:50:29.474Z,12.31
2023-03-14T01:50:40.494Z,12.33
2023-03-14T01:50:51.493Z,12.30
2023-03-14T01:51:02.270Z,12.29
2023-03-14T01:51:13.307Z,12.33
2023-03-14T01:51:24.269Z,12.34
2023-03-14T01:51:35.052Z,12.29
2023-03-14T01:51:46.102Z,12.31
2023-03-14T01:51:57.096Z,12.27
2023-03-14T01:52:07.870Z,12.29
2023-03-14T01:52:18.931Z,12.30
2023-03-14T01:52:29.897Z,12.29
2023-03-14T01:52:40.686Z,12.29
2023-03-14T01:52:51.740Z,12.29
2023-03-14T01:53:02.698Z,12.30
2023-03-14T01:53:13.465Z,12.31
2023-03-14T01:53:24.597Z,12.30
2023-03-14T01:53:35.568Z,12.29
2023-03-14T01:53:46.338Z,12.29
2023-03-14T01:53:57.391Z,12.26
2023-03-14T01:54:08.354Z,12.26
2023-03-14T01:54:19.140Z,12.24
2023-03-14T01:54:30.179Z,12.27
2023-03-14T01:54:41.154Z,12.26
2023-03-14T01:54:51.930Z,12.29
2023-03-14T01:55:02.989Z,12.24
2023-03-14T01:55:13.978Z,12.26
2023-03-14T01:55:24.745Z,12.29
2023-03-14T01:55:35.789Z,12.24
2023-03-14T01:55:46.768Z,12.27
2023-03-14T01:55:57.567Z,12.21
2023-03-14T01:56:08.601Z,12.24
2023-03-14T01:56:19.562Z,12.30
2023-03-14T01:56:30.344Z,12.24
2023-03-14T01:56:41.385Z,12.30
2023-03-14T01:56:52.397Z,12.26
2023-03-14T01:57:03.160Z,12.27
2023-03-14T01:57:14.192Z,12.20
2023-03-14T01:57:25.165Z,12.27
2023-03-14T01:57:35.934Z,12.29
2023-03-14T01:57:46.974Z,12.27
2023-03-14T01:57:57.975Z,12.24
2023-03-14T01:58:08.720Z,12.27
2023-03-14T01:58:19.774Z,12.20
2023-03-14T01:58:30.750Z,12.23
2023-03-14T01:58:41.531Z,12.26
2023-03-14T01:58:52.576Z,12.20
2023-03-14T01:59:03.538Z,12.23
2023-03-14T01:59:14.315Z,12.30
2023-03-14T01:59:25.385Z,12.21
2023-03-14T01:59:36.342Z,12.21
2023-03-14T01:59:47.106Z,12.26
2023-03-14T01:59:58.157Z,12.24
2023-03-14T02:00:09.136Z,12.26
2023-03-14T02:00:19.912Z,12.23
2023-03-14T02:00:30.987Z,12.24
2023-03-14T02:00:41.980Z,12.20
2023-03-14T02:00:52.727Z,12.26
2023-03-14T02:01:03.807Z,12.21
2023-03-14T02:01:14.796Z,12.20
2023-03-14T02:01:25.608Z,12.29
2023-03-14T02:01:36.127Z,12.24
2023-03-14T02:01:47.097Z,12.24
2023-03-14T02:01:57.931Z,12.26
2023-03-14T02:02:08.941Z,12.21
2023-03-14T02:02:19.906Z,12.26
2023-03-14T02:02:30.674Z,12.21
2023-03-14T02:02:41.737Z,12.21
2023-03-14T02:02:52.712Z,12.23
2023-03-14T02:03:03.549Z,12.24
2023-03-14T02:03:14.063Z,12.24
2023-03-14T02:03:25.029Z,12.21
2023-03-14T02:03:35.804Z,12.26
2023-03-14T02:03:46.848Z,12.21
2023-03-14T02:03:57.849Z,12.20
2023-03-14T02:04:08.620Z,12.19
2023-03-14T02:04:19.676Z,12.24
2023-03-14T02:04:30.636Z,12.20
2023-03-14T02:04:41.405Z,12.21
2023-03-14T02:04:52.465Z,12.19
2023-03-14T02:05:03.440Z,12.20
2023-03-14T02:05:14.197Z,12.21
2023-03-14T02:05:25.252Z,12.23
2023-03-14T02:05:36.213Z,12.24
2023-03-14T02:05:46.986Z,12.24
2023-03-14T02:05:58.035Z,12.24
2023-03-14T02:06:09.007Z,12.21
2023-03-14T02:06:19.773Z,12.21
2023-03-14T02:06:30.826Z,12.20
2023-03-14T02:06:41.787Z,12.21
2023-03-14T02:06:52.568Z,12.21
2023-03-14T02:07:03.619Z,12.24
2023-03-14T02:07:14.598Z,12.21
2023-03-14T02:07:25.400Z,12.23
2023-03-14T02:07:36.430Z,12.21
2023-03-14T02:07:47.416Z,12.15
2023-03-14T02:07:58.187Z,12.19
2023-03-14T02:08:09.248Z,12.20
2023-03-14T02:08:20.210Z,12.23
2023-03-14T02:08:30.980Z,12.21
2023-03-14T02:08:42.025Z,12.13
2023-03-14T02:08:52.993Z,12.19
2023-03-14T02:09:03.771Z,12.23
2023-03-14T02:09:14.809Z,12.21
2023-03-14T02:09:25.772Z,12.19
2023-03-14T02:09:36.557Z,12.20
2023-03-14T02:09:47.611Z,12.19
2023-03-14T02:09:58.582Z,12.13
2023-03-14T02:10:09.353Z,12.20
2023-03-14T02:10:20.407Z,12.16
2023-03-14T02:10:31.379Z,12.20
2023-03-14T02:10:42.150Z,12.23
2023-03-14T02:10:53.202Z,12.16
2023-03-14T02:11:04.167Z,12.19
2023-03-14T02:11:14.948Z,12.19
2023-03-14T02:11:25.985Z,12.16
2023-03-14T02:11:36.959Z,12.15
2023-03-14T02:11:47.730Z,12.13
2023-03-14T02:11:58.796Z,12.15
2023-03-14T02:12:09.768Z,12.12
2023-03-14T02:12:20.568Z,12.13
2023-03-14T02:12:31.615Z,12.13
2023-03-14T02:12:42.580Z,12.12
2023-03-14T02:12:53.336Z,12.19
2023-03-14T02:13:04.397Z,12.13
2023-03-14T02:13:15.375Z,12.15
2023-03-14T02:13:26.165Z,12.16
2023-03-14T02:13:37.198Z,12.16
2023-03-14T02:13:48.158Z,12.12
2023-03-14T02:13:58.953Z,12.12
2023-03-14T02:14:10.045Z,12.13
2023-03-14T02:14:21.014Z,12.19
2023-03-14T02:14:31.782Z,12.15
2023-03-14T02:14:42.846Z,12.11
2023-03-14T02:14:53.813Z,12.13
2023-03-14T02:15:04.651Z,12.16
2023-03-14T02:15:15.127Z,12.12
2023-03-14T02:15:26.097Z,12.12
2023-03-14T02:15:36.889Z,12.15
2023-03-14T02:15:47.910Z,12.11
2023-03-14T02:15:58.875Z,12.11
2023-03-14T02:16:09.705Z,12.15
2023-03-14T02:16:20.752Z,12.15
2023-03-14T02:16:31.726Z,12.13
2023-03-14T02:16:42.544Z,12.12
2023-03-14T02:16:53.002Z,12.19
2023-03-14T02:17:03.983Z,12.11
2023-03-14T02:17:14.755Z,12.13
2023-03-14T02:17:25.805Z,12.12
2023-03-14T02:17:36.759Z,12.12
2023-03-14T02:17:47.531Z,12.12
2023-03-14T02:17:58.587Z,12.12
2023-03-14T02:18:09.592Z,12.13
2023-03-14T02:18:20.344Z,12.13
2023-03-14T02:18:31.395Z,12.13
2023-03-14T02:18:42.353Z,12.12
2023-03-14T02:18:53.118Z,12.12
2023-03-14T02:19:04.196Z,12.11
2023-03-14T02:19:15.160Z,12.09
2023-03-14T02:19:25.922Z,12.09
2023-03-14T02:19:36.966Z,12.12
2023-03-14T02:19:47.957Z,12.13
2023-03-14T02:19:58.746Z,12.11
2023-03-14T02:20:09.843Z,12.09
2023-03-14T02:20:20.770Z,12.09
2023-03-14T02:20:31.541Z,12.11